Garfield, Illinois
Current Conditions -  °F | °C
As of 10:15 PM on Sunday 23 Nov 2014 (Local Time) from KC75 Reporting Station
Moderate Rain Moderate Rain  
Wind Chill: 48°   Ceiling: 300
Heat Index: 48°   Visibility: 1.2mi
Dew Point: 47°   Wind: 0mph
Humidity: 97%   Direction: NA
Pressure: 29.15"   Gusts: NA
Location:  41.0632°N, 89.0208°W
Report Text: KC75 240415Z AUTO 00000KT 1 1/4SM RA OVC003 09/08 A2915 RMK AO2 P0001 T00880083
Loading
Personal Weather Stations






























Interactive Weather Map New forecast layout! Learn more

10-Day Weather Forecast

Advertisements
Track Severe Weather on mobile